Time;durP1;ratioP1;P1;durP2;ratioP2;P2;SDS_P1;SDS_P2;PMS_P1;PMS_P2;Temp;Humidity;BMP_temperature;BMP_pressure;BME280_temperature;BME280_humidity;BME280_pressure;Samples;Min_cycle;Max_cycle;Signal;HPM_P1;HPM_P2
2022/06/08 00:00:23;;;;;;;12.80;11.55;;;;;;;18.20;69.63;96734.40;1654722;85;25493;-74
2022/06/08 00:03:14;;;;;;;13.03;11.83;;;;;;;18.18;69.71;96731.66;1652651;85;26233;-74
2022/06/08 00:05:41;;;;;;;13.95;12.68;;;;;;;18.12;69.83;96729.48;1654800;85;25921;-75
2022/06/08 00:08:07;;;;;;;15.28;13.78;;;;;;;18.07;69.89;96726.77;1656454;86;25770;-75
2022/06/08 00:10:35;;;;;;;14.83;13.43;;;;;;;18.07;69.91;96726.77;1655371;85;25843;-74
2022/06/08 00:13:02;;;;;;;15.08;13.55;;;;;;;18.07;69.90;96728.69;1652472;85;25809;-74
2022/06/08 00:15:28;;;;;;;15.45;13.75;;;;;;;18.08;70.03;96725.68;1656796;86;27405;-74
2022/06/08 00:17:56;;;;;;;14.58;13.28;;;;;;;18.10;70.05;96727.59;1655820;85;26209;-74
2022/06/08 00:20:23;;;;;;;14.68;13.28;;;;;;;18.08;70.08;96730.33;1657279;85;25851;-75
2022/06/08 00:22:50;;;;;;;14.43;13.10;;;;;;;18.08;70.12;96725.68;1655184;85;25799;-75
2022/06/08 00:25:17;;;;;;;14.95;13.45;;;;;;;18.10;70.08;96728.96;1652872;85;25699;-76
2022/06/08 00:27:43;;;;;;;14.43;13.10;;;;;;;18.12;70.07;96728.11;1683624;83;27416;-75
2022/06/08 00:30:10;;;;;;;15.10;13.50;;;;;;;18.15;70.02;96719.38;1705985;83;26358;-74
2022/06/08 00:32:37;;;;;;;15.28;13.78;;;;;;;18.15;70.04;96716.64;1695656;83;25754;-74
2022/06/08 00:35:06;;;;;;;14.20;12.80;;;;;;;18.09;70.10;96716.39;1696733;83;25858;-74
2022/06/08 00:37:32;;;;;;;14.85;13.22;;;;;;;18.08;70.29;96713.39;1700030;83;25938;-75
2022/06/08 00:39:59;;;;;;;15.15;13.60;;;;;;;18.07;70.31;96715.84;1704512;83;27482;-75
2022/06/08 00:42:26;;;;;;;15.35;13.85;;;;;;;18.04;70.36;96708.20;1703874;83;25535;-75
2022/06/08 00:44:58;;;;;;;15.43;13.83;;;;;;;17.98;70.42;96706.59;1697980;81;25408;-75
2022/06/08 00:47:32;;;;;;;15.58;14.07;;;;;;;17.93;70.49;96709.30;1756381;80;26665;-75
2022/06/08 00:50:28;;;;;;;16.45;14.63;;;;;;;17.86;70.58;96712.33;1754759;80;25894;-74
2022/06/08 00:52:56;;;;;;;16.50;14.68;;;;;;;17.81;70.63;96708.23;1694552;83;27429;-75
2022/06/08 00:55:27;;;;;;;16.77;15.03;;;;;;;17.79;70.78;96709.59;1696253;83;25661;-75
2022/06/08 00:57:59;;;;;;;18.05;16.15;;;;;;;17.78;70.83;96709.31;1689859;83;25403;-75
2022/06/08 01:00:38;;;;;;;19.42;15.95;;;;;;;17.80;70.89;96709.86;1663112;84;34766;-76
2022/06/08 01:03:08;;;;;;;16.77;15.08;;;;;;;17.76;70.88;96706.03;1654478;84;25498;-75
2022/06/08 01:05:41;;;;;;;18.05;15.95;;;;;;;17.71;70.95;96714.24;1661332;85;28238;-78
2022/06/08 01:08:39;;;;;;;19.32;17.27;;;;;;;17.70;71.04;96709.88;1662612;84;25705;-75
2022/06/08 01:11:13;;;;;;;19.10;17.10;;;;;;;17.72;71.20;96703.59;1626829;86;25977;-75
2022/06/08 01:13:42;;;;;;;20.32;17.23;;;;;;;17.72;71.23;96696.78;1634891;87;25901;-75
2022/06/08 01:16:11;;;;;;;19.15;17.15;;;;;;;17.76;71.34;96696.48;1637877;87;25944;-75
2022/06/08 01:18:39;;;;;;;18.90;16.87;;;;;;;17.79;71.31;96693.20;1661014;85;27688;-75
2022/06/08 01:21:27;;;;;;;18.52;16.62;;;;;;;17.83;71.31;96694.31;1659347;85;25896;-75
2022/06/08 01:24:01;;;;;;;18.12;16.32;;;;;;;17.86;71.26;96690.48;1623926;86;25975;-77
2022/06/08 01:26:44;;;;;;;17.98;16.07;;;;;;;17.89;71.37;96691.83;1635756;86;25973;-78
2022/06/08 01:29:31;;;;;;;18.45;16.55;;;;;;;17.86;71.38;96688.30;1636951;86;25880;-78
2022/06/08 01:32:18;;;;;;;19.65;17.25;;;;;;;17.87;71.44;96688.00;1657969;85;27428;-75
2022/06/08 01:35:26;;;;;;;19.45;17.42;;;;;;;17.89;71.46;96686.37;1578986;89;25805;-78
2022/06/08 01:38:21;;;;;;;20.57;18.12;;;;;;;17.82;71.48;96679.02;1589462;89;25898;-74
2022/06/08 01:41:20;;;;;;;21.35;19.05;;;;;;;17.76;71.62;96676.83;1574298;89;26040;-74
2022/06/08 01:44:26;;;;;;;22.45;20.08;;;;;;;17.72;71.77;96674.94;1579751;89;25854;-75
2022/06/08 01:47:16;;;;;;;20.70;17.92;;;;;;;17.74;71.83;96675.48;1606815;87;27446;-75
2022/06/08 01:49:57;;;;;;;18.82;16.93;;;;;;;17.78;71.77;96676.01;1605610;87;26291;-77
2022/06/08 01:52:45;;;;;;;19.80;17.70;;;;;;;17.77;71.80;96676.28;1617669;87;25916;-75
2022/06/08 01:55:23;;;;;;;21.00;18.80;;;;;;;17.78;71.82;96682.84;1629053;87;25878;-74
2022/06/08 01:58:09;;;;;;;23.67;19.62;;;;;;;17.80;71.89;96683.38;1582650;89;25850;-77
2022/06/08 02:00:47;;;;;;;22.70;20.30;;;;;;;17.80;71.94;96683.93;1550118;91;27530;-75
2022/06/08 02:03:34;;;;;;;24.80;21.65;;;;;;;17.80;72.01;96686.11;1584005;89;25587;-74
2022/06/08 02:06:14;;;;;;;26.07;22.07;;;;;;;17.82;72.04;96674.92;1563699;90;25793;-76
2022/06/08 02:08:46;;;;;;;25.02;22.32;;;;;;;17.81;72.08;96678.74;1567785;91;26606;-76
2022/06/08 02:11:30;;;;;;;28.92;22.15;;;;;;;17.78;72.17;96669.19;1564407;90;25743;-75
2022/06/08 02:14:03;;;;;;;23.85;21.17;;;;;;;17.78;72.26;96673.83;1526450;92;27480;-74
2022/06/08 02:16:47;;;;;;;27.65;23.35;;;;;;;17.79;72.27;96674.92;1500410;93;25832;-77
2022/06/08 02:19:30;;;;;;;29.95;24.35;;;;;;;17.79;72.29;96671.38;1522178;93;25909;-78
2022/06/08 02:22:11;;;;;;;28.10;24.15;;;;;;;17.77;72.38;96659.91;1454820;97;26687;-74
2022/06/08 02:24:46;;;;;;;28.25;24.70;;;;;;;17.74;72.47;96670.03;1432509;99;26014;-76
2022/06/08 02:27:26;;;;;;;27.35;24.02;;;;;;;17.75;72.54;96667.00;1457489;97;27484;-76
2022/06/08 02:30:01;;;;;;;34.13;26.05;;;;;;;17.78;72.52;96662.91;1425547;99;25976;-74
2022/06/08 02:35:43;;;;;;;31.97;25.02;;;;;;;17.76;72.69;96663.72;1420663;100;25965;-75
2022/06/08 02:38:15;;;;;;;26.82;23.35;;;;;;;17.75;72.73;96664.27;1421886;100;26984;-74
2022/06/08 02:40:46;;;;;;;32.35;23.67;;;;;;;17.74;72.83;96662.66;1440312;98;27461;-75
2022/06/08 02:43:39;;;;;;;28.83;24.98;;;;;;;17.71;72.92;96658.29;1438450;99;25849;-77
2022/06/08 02:46:26;;;;;;;33.75;25.77;;;;;;;17.69;72.96;96657.73;1395476;101;25928;-74
2022/06/08 02:48:52;;;;;;;32.98;27.15;;;;;;;17.69;73.01;96657.19;1363040;104;27762;-77
2022/06/08 02:51:28;;;;;;;32.60;25.92;;;;;;;17.70;73.09;96664.84;1362967;104;25958;-77
2022/06/08 02:54:03;;;;;;;32.88;25.90;;;;;;;17.70;73.18;96666.20;1363455;102;28472;-78
2022/06/08 02:57:01;;;;;;;30.00;24.43;;;;;;;17.70;73.24;96672.48;1378854;103;25960;-74
2022/06/08 02:59:49;;;;;;;33.85;26.80;;;;;;;17.70;73.27;96671.66;1357037;103;25982;-77
2022/06/08 03:02:36;;;;;;;31.20;25.27;;;;;;;17.68;73.34;96671.11;1435335;97;25885;-75
2022/06/08 03:05:17;;;;;;;31.12;25.72;;;;;;;17.68;73.44;96677.94;1455437;98;26180;-75
2022/06/08 03:07:49;;;;;;;30.82;24.35;;;;;;;17.67;73.54;96666.74;1456193;97;27485;-75
2022/06/08 03:10:17;;;;;;;31.80;26.12;;;;;;;17.64;73.64;96673.02;1454187;97;25900;-77
2022/06/08 03:12:55;;;;;;;35.90;26.10;;;;;;;17.63;73.76;96671.38;1456738;97;25951;-75
2022/06/08 03:15:24;;;;;;;28.45;23.52;;;;;;;17.60;73.84;96669.19;1413265;100;26554;-77
2022/06/08 03:17:52;;;;;;;30.82;23.90;;;;;;;17.61;73.92;96672.19;1424673;98;26055;-75
2022/06/08 03:20:22;;;;;;;30.72;24.35;;;;;;;17.63;73.98;96673.28;1443811;98;27440;-78
2022/06/08 03:22:49;;;;;;;30.77;23.27;;;;;;;17.62;74.04;96671.10;1416617;100;25960;-76
2022/06/08 03:25:16;;;;;;;28.57;22.05;;;;;;;17.62;74.11;96675.20;1419793;100;25818;-75
2022/06/08 03:27:45;;;;;;;28.73;22.75;;;;;;;17.59;74.14;96675.73;1456095;97;26432;-75
2022/06/08 03:30:14;;;;;;;27.60;20.40;;;;;;;17.53;74.26;96671.35;1426954;100;25916;-74
2022/06/08 03:32:41;;;;;;;25.95;21.20;;;;;;;17.45;74.39;96676.00;1439374;98;27644;-79
2022/06/08 03:35:09;;;;;;;27.05;18.95;;;;;;;17.42;74.55;96675.17;1445332;98;25594;-75
2022/06/08 03:37:35;;;;;;;22.62;19.42;;;;;;;17.41;74.69;96670.81;1447763;98;25947;-75
2022/06/08 03:40:02;;;;;;;22.52;18.77;;;;;;;17.43;74.81;96675.45;1483671;95;25987;-73
2022/06/08 03:42:29;;;;;;;23.05;18.30;;;;;;;17.47;74.81;96677.91;1527713;92;25884;-75
2022/06/08 03:44:56;;;;;;;25.17;19.98;;;;;;;17.50;74.81;96679.29;1559363;87;27550;-75
2022/06/08 03:47:28;;;;;;;24.30;18.98;;;;;;;17.50;74.83;96681.47;1621071;87;26078;-74
2022/06/08 03:49:58;;;;;;;27.17;20.68;;;;;;;17.50;74.87;96682.02;1583042;89;32466;-74
2022/06/08 03:52:30;;;;;;;26.65;20.60;;;;;;;17.53;74.90;96685.54;1585717;88;25716;-76
2022/06/08 03:55:00;;;;;;;28.33;20.23;;;;;;;17.52;74.87;96687.45;1603919;88;26091;-76
2022/06/08 03:57:29;;;;;;;23.42;19.90;;;;;;;17.52;74.93;96691.55;1604989;88;27524;-75
2022/06/08 03:59:57;;;;;;;26.00;19.77;;;;;;;17.51;74.95;96684.45;1604148;88;25907;-75
2022/06/08 04:02:25;;;;;;;24.18;19.57;;;;;;;17.54;74.96;96689.91;1603373;88;25800;-75
2022/06/08 04:04:52;;;;;;;24.00;18.87;;;;;;;17.57;75.00;96690.19;1604102;88;25831;-76
2022/06/08 04:07:18;;;;;;;24.98;18.10;;;;;;;17.59;74.94;96679.83;1604170;88;25707;-75
2022/06/08 04:09:45;;;;;;;24.63;19.92;;;;;;;17.61;74.90;96677.65;1604216;88;28083;-74
2022/06/08 04:12:13;;;;;;;26.45;19.65;;;;;;;17.63;74.90;96668.65;1664491;83;25835;-75
2022/06/08 04:14:40;;;;;;;23.12;18.80;;;;;;;17.61;74.98;96668.09;1691818;83;25850;-75
2022/06/08 04:17:07;;;;;;;25.88;19.12;;;;;;;17.56;75.08;96672.18;1693860;83;25730;-77
2022/06/08 04:19:34;;;;;;;22.55;18.05;;;;;;;17.56;75.17;96663.17;1703947;83;26011;-76
2022/06/08 04:22:01;;;;;;;21.68;17.55;;;;;;;17.58;75.19;96673.27;1692475;83;27604;-75
2022/06/08 04:24:27;;;;;;;23.12;17.55;;;;;;;17.59;75.26;96668.91;1687553;83;25840;-74
2022/06/08 04:26:55;;;;;;;21.23;17.05;;;;;;;17.57;75.31;96661.54;1687710;83;25954;-75
2022/06/08 04:29:21;;;;;;;23.55;18.12;;;;;;;17.57;75.35;96663.45;1687771;83;25770;-75
2022/06/08 04:31:48;;;;;;;22.52;17.85;;;;;;;17.57;75.36;96651.98;1704391;83;27045;-77
2022/06/08 04:34:15;;;;;;;24.72;18.02;;;;;;;17.57;75.42;96651.17;1687859;83;28336;-74
2022/06/08 04:36:43;;;;;;;22.60;17.57;;;;;;;17.61;75.40;96650.36;1694042;83;25893;-73
2022/06/08 04:39:12;;;;;;;21.17;17.05;;;;;;;17.64;75.39;96640.27;1692391;83;26024;-76
2022/06/08 04:41:39;;;;;;;21.77;17.48;;;;;;;17.68;75.38;96641.91;1700371;83;26591;-74
2022/06/08 04:44:07;;;;;;;21.77;17.60;;;;;;;17.75;75.36;96645.73;1699589;83;25931;-73
2022/06/08 04:46:34;;;;;;;21.45;16.70;;;;;;;17.78;75.40;96642.44;1694520;83;28404;-75
2022/06/08 04:49:01;;;;;;;19.07;16.02;;;;;;;17.77;75.34;96637.52;1687621;83;25930;-73
2022/06/08 04:51:28;;;;;;;23.65;17.25;;;;;;;17.81;75.40;96639.16;1708226;83;25816;-73
2022/06/08 04:53:55;;;;;;;21.40;17.12;;;;;;;17.86;75.29;96634.53;1749396;80;25727;-73
2022/06/08 04:56:21;;;;;;;19.98;17.35;;;;;;;17.90;75.20;96639.69;1743717;80;25784;-74
2022/06/08 04:58:48;;;;;;;22.87;18.98;;;;;;;17.95;75.19;96644.33;1766889;81;27491;-76
2022/06/08 05:01:15;;;;;;;24.02;19.73;;;;;;;18.02;75.09;96643.48;1763474;80;25471;-74
2022/06/08 05:03:42;;;;;;;22.75;19.23;;;;;;;18.05;75.00;96634.73;1744879;80;25720;-73
2022/06/08 05:06:08;;;;;;;22.07;18.95;;;;;;;18.08;74.97;96635.56;1755536;80;26376;-73
2022/06/08 05:08:35;;;;;;;23.80;19.15;;;;;;;18.12;74.83;96636.61;1751569;80;25858;-74
2022/06/08 05:11:04;;;;;;;26.70;20.40;;;;;;;18.15;74.77;96633.34;1767234;81;28329;-74
2022/06/08 05:13:30;;;;;;;24.67;20.15;;;;;;;18.22;74.90;96635.80;1763734;80;25761;-74
2022/06/08 05:15:57;;;;;;;26.80;20.45;;;;;;;18.27;74.84;96637.94;1770597;80;25875;-74
2022/06/08 05:18:24;;;;;;;24.80;19.70;;;;;;;18.31;74.81;96642.31;1765247;80;25725;-73
2022/06/08 05:20:50;;;;;;;24.32;18.50;;;;;;;18.34;74.60;96641.21;1757943;80;25249;-74
2022/06/08 05:23:22;;;;;;;21.70;19.02;;;;;;;18.38;74.36;96644.73;1766809;81;27497;-73
2022/06/08 05:25:49;;;;;;;23.02;19.23;;;;;;;18.33;74.20;96649.13;1749081;80;25655;-73
2022/06/08 05:28:15;;;;;;;24.65;18.90;;;;;;;18.36;74.20;96653.20;1744670;80;25425;-74
2022/06/08 05:30:43;;;;;;;21.33;18.67;;;;;;;18.43;74.20;96648.82;1738130;80;25900;-74
2022/06/08 05:33:11;;;;;;;20.32;17.57;;;;;;;18.48;74.50;96650.14;1748251;80;25700;-73
2022/06/08 05:35:39;;;;;;;20.17;16.80;;;;;;;18.50;74.61;96658.89;1734627;80;27561;-73
2022/06/08 05:40:37;;;;;;;21.50;17.55;;;;;;;18.58;74.46;96666.02;1682888;84;25706;-73
2022/06/08 05:43:09;;;;;;;20.17;16.20;;;;;;;18.66;74.24;96655.03;1664276;84;25547;-73
2022/06/08 05:45:35;;;;;;;18.20;15.38;;;;;;;18.73;74.01;96651.42;1666681;84;26027;-73
2022/06/08 05:48:04;;;;;;;21.97;16.95;;;;;;;18.78;73.58;96647.31;1663894;84;27674;-73
2022/06/08 05:50:33;;;;;;;20.85;16.00;;;;;;;18.80;73.67;96654.69;1675214;84;25299;-75
2022/06/08 05:53:00;;;;;;;19.00;15.18;;;;;;;18.84;73.40;96659.84;1670177;84;26089;-76
2022/06/08 05:55:27;;;;;;;18.85;15.63;;;;;;;18.88;73.32;96663.66;1686115;84;26554;-74
2022/06/08 05:57:54;;;;;;;18.10;15.70;;;;;;;18.89;73.17;96665.30;1671907;84;25917;-73
2022/06/08 06:00:31;;;;;;;18.50;15.48;;;;;;;18.83;73.18;96663.70;1681228;84;27321;-76
2022/06/08 06:02:59;;;;;;;21.00;16.15;;;;;;;18.73;73.13;96671.11;1673411;84;25558;-74
2022/06/08 06:05:30;;;;;;;20.20;15.23;;;;;;;18.60;73.24;96667.07;1675695;84;25793;-73
2022/06/08 06:07:58;;;;;;;18.70;15.20;;;;;;;18.51;73.23;96663.26;1664069;84;25785;-73
2022/06/08 06:10:27;;;;;;;18.23;16.10;;;;;;;18.42;73.30;96676.69;1681600;84;25914;-73
2022/06/08 06:12:54;;;;;;;19.37;14.68;;;;;;;18.33;73.37;96675.64;1669273;84;27589;-76
2022/06/08 06:15:23;;;;;;;18.57;14.85;;;;;;;18.34;73.59;96677.27;1673486;84;25802;-76
2022/06/08 06:17:50;;;;;;;17.82;14.98;;;;;;;18.35;73.70;96678.34;1667007;84;25841;-73
2022/06/08 06:20:18;;;;;;;17.50;14.50;;;;;;;18.40;73.69;96684.89;1671285;84;25965;-74
2022/06/08 06:22:45;;;;;;;18.12;15.03;;;;;;;18.42;73.68;96683.52;1682212;84;25791;-73
2022/06/08 06:25:12;;;;;;;17.82;14.33;;;;;;;18.48;73.63;96682.94;1681213;84;28271;-73
2022/06/08 06:27:39;;;;;;;16.52;14.78;;;;;;;18.51;73.51;96679.66;1673554;84;25505;-76
2022/06/08 06:30:07;;;;;;;17.67;14.43;;;;;;;18.46;73.60;96681.06;1675135;84;26143;-74
2022/06/08 06:32:37;;;;;;;15.43;13.70;;;;;;;18.44;73.70;96681.34;1687268;84;25898;-76
2022/06/08 06:35:08;;;;;;;16.17;13.40;;;;;;;18.47;73.75;96675.86;1681303;84;26161;-74
2022/06/08 06:37:35;;;;;;;14.60;12.00;;;;;;;18.53;73.77;96673.37;1721764;81;27729;-73
2022/06/08 06:40:01;;;;;;;13.75;12.33;;;;;;;18.58;73.47;96677.48;1762101;80;25408;-72
2022/06/08 06:42:33;;;;;;;14.55;12.33;;;;;;;18.61;73.60;96674.99;1768799;81;25765;-73
2022/06/08 06:45:00;;;;;;;15.40;13.38;;;;;;;18.69;73.53;96673.61;1751354;80;25699;-73
2022/06/08 06:47:27;;;;;;;15.38;11.97;;;;;;;18.71;73.45;96672.79;1738371;80;25181;-72
2022/06/08 06:49:54;;;;;;;14.53;12.65;;;;;;;18.78;73.57;96675.20;1763315;80;27614;-73
2022/06/08 06:52:20;;;;;;;13.85;12.40;;;;;;;18.89;73.26;96680.34;1763268;80;25753;-73
2022/06/08 06:54:47;;;;;;;14.10;12.00;;;;;;;18.95;73.37;96669.66;1763604;80;25798;-73
2022/06/08 06:57:14;;;;;;;16.10;14.40;;;;;;;19.06;72.93;96672.59;1763240;80;26649;-73
2022/06/08 06:59:42;;;;;;;15.85;14.13;;;;;;;19.09;72.76;96675.28;1759788;80;25916;-73
2022/06/08 07:02:20;;;;;;;15.55;13.60;;;;;;;19.11;72.68;96673.64;1766976;81;27463;-72
2022/06/08 07:04:47;;;;;;;14.95;13.00;;;;;;;19.16;72.56;96671.70;1759528;80;25733;-75
2022/06/08 07:07:14;;;;;;;14.73;12.88;;;;;;;19.18;72.51;96682.36;1758073;80;25845;-76
2022/06/08 07:09:42;;;;;;;14.53;13.03;;;;;;;19.17;72.24;96676.63;1763812;80;25763;-73
2022/06/08 07:12:12;;;;;;;16.95;13.93;;;;;;;19.08;72.27;96675.59;1738618;80;25722;-74
2022/06/08 07:14:39;;;;;;;16.93;13.65;;;;;;;19.02;72.27;96666.59;1769256;80;28438;-74
2022/06/08 07:17:06;;;;;;;17.25;14.33;;;;;;;18.95;72.38;96672.94;1743799;80;25694;-73
2022/06/08 07:19:32;;;;;;;15.63;14.03;;;;;;;18.97;72.45;96680.28;1753617;80;25889;-74
2022/06/08 07:21:59;;;;;;;15.05;13.43;;;;;;;18.96;72.36;96679.46;1742131;80;26488;-74
2022/06/08 07:24:31;;;;;;;14.75;12.93;;;;;;;18.99;72.29;96683.55;1761072;80;25710;-73
2022/06/08 07:26:58;;;;;;;15.23;13.30;;;;;;;19.00;72.22;96685.19;1768401;80;27322;-73
2022/06/08 07:29:25;;;;;;;14.20;12.70;;;;;;;18.98;72.16;96686.84;1759198;80;25777;-74
2022/06/08 07:31:51;;;;;;;15.63;13.65;;;;;;;18.97;72.08;96684.38;1743631;80;25745;-73
2022/06/08 07:34:19;;;;;;;15.05;13.43;;;;;;;18.95;72.15;96688.80;1759985;80;25948;-73
2022/06/08 07:36:46;;;;;;;14.83;13.22;;;;;;;18.95;72.09;96692.90;1751592;80;25767;-74
2022/06/08 07:39:15;;;;;;;15.45;13.83;;;;;;;18.94;72.13;96698.09;1762706;80;28208;-73
2022/06/08 07:41:44;;;;;;;15.95;13.93;;;;;;;18.93;72.22;96692.91;1739750;80;25731;-73
2022/06/08 07:44:11;;;;;;;16.70;14.03;;;;;;;18.93;72.17;96695.09;1776826;79;25766;-73
2022/06/08 07:46:38;;;;;;;17.35;14.28;;;;;;;18.89;72.06;96699.48;1775189;79;26514;-73
2022/06/08 07:51:53;;;;;;;17.30;14.55;;;;;;;18.73;72.05;96696.53;1768896;80;27440;-76
2022/06/08 07:54:22;;;;;;;17.00;14.25;;;;;;;18.73;72.17;96697.90;1778901;80;25674;-73
2022/06/08 07:56:49;;;;;;;17.42;14.87;;;;;;;18.68;72.15;96688.38;1776636;79;25799;-75
2022/06/08 07:59:16;;;;;;;16.87;14.53;;;;;;;18.64;72.16;96695.48;1781341;79;25766;-77
2022/06/08 08:01:42;;;;;;;18.87;14.75;;;;;;;18.60;72.20;96695.22;1766549;79;25190;-73
2022/06/08 08:04:09;;;;;;;19.23;14.65;;;;;;;18.57;72.27;96705.88;1762631;80;28059;-74
2022/06/08 08:06:36;;;;;;;17.65;13.98;;;;;;;18.57;72.37;96708.62;1748794;80;25420;-73
2022/06/08 08:09:03;;;;;;;17.70;15.10;;;;;;;18.55;72.42;96711.62;1756803;80;25235;-73
2022/06/08 08:11:29;;;;;;;15.98;14.30;;;;;;;18.54;72.57;96721.47;1759661;80;25881;-73
2022/06/08 08:13:56;;;;;;;18.77;13.83;;;;;;;18.49;72.73;96723.66;1756963;80;25881;-74
2022/06/08 08:16:23;;;;;;;18.73;15.00;;;;;;;18.41;72.87;96726.97;1754585;80;27400;-73
2022/06/08 08:18:49;;;;;;;15.63;13.98;;;;;;;18.40;73.08;96729.43;1742273;80;25652;-76
2022/06/08 08:21:16;;;;;;;16.82;13.85;;;;;;;18.40;73.23;96733.52;1765030;80;25326;-74
2022/06/08 08:23:42;;;;;;;17.92;15.25;;;;;;;18.35;73.26;96735.71;1757261;80;25975;-76
2022/06/08 08:26:09;;;;;;;18.70;14.93;;;;;;;18.28;73.41;96736.56;1775424;79;25697;-75
2022/06/08 08:28:36;;;;;;;16.80;15.00;;;;;;;18.26;73.64;96741.47;1760666;80;28394;-75
2022/06/08 08:31:02;;;;;;;17.48;14.85;;;;;;;18.27;73.76;96734.92;1765422;79;26061;-74
2022/06/08 08:33:29;;;;;;;17.07;15.00;;;;;;;18.31;73.83;96735.19;1770861;79;25900;-73
2022/06/08 08:35:55;;;;;;;20.17;15.95;;;;;;;18.34;73.97;96735.47;1775135;79;25710;-73
2022/06/08 08:38:23;;;;;;;22.45;15.32;;;;;;;18.37;74.13;96732.70;1764306;79;25657;-73
2022/06/08 08:40:59;;;;;;;17.95;15.38;;;;;;;18.32;74.38;96725.91;1778491;79;27639;-74
2022/06/08 08:43:34;;;;;;;19.40;14.78;;;;;;;18.33;74.44;96739.84;1776613;79;25622;-73
2022/06/08 08:46:12;;;;;;;21.33;15.63;;;;;;;18.24;74.54;96737.38;1780548;79;25831;-75
2022/06/08 08:48:47;;;;;;;19.62;16.37;;;;;;;18.17;74.81;96732.22;1768192;79;25910;-74
2022/06/08 08:51:27;;;;;;;19.52;15.45;;;;;;;18.20;74.99;96733.03;1605050;87;25874;-75
2022/06/08 08:54:34;;;;;;;20.20;15.28;;;;;;;18.23;75.01;96733.83;1601370;87;27290;-73
2022/06/08 08:57:14;;;;;;;22.05;14.90;;;;;;;18.23;75.08;96730.30;1606319;87;25831;-72
2022/06/08 08:59:45;;;;;;;18.45;14.23;;;;;;;18.19;75.36;96725.94;1603911;87;36544;-72
2022/06/08 09:03:14;;;;;;;15.25;13.62;;;;;;;18.23;75.40;96725.63;1604241;86;25791;-75
2022/06/08 09:04:47;;;;;;;15.18;12.50;;;;;;;18.27;75.35;96725.91;1600328;87;25821;-73
2022/06/08 09:07:20;;;;;;;13.90;12.23;;;;;;;18.27;75.34;96723.17;1602290;87;27634;-74
2022/06/08 09:09:46;;;;;;;12.45;11.22;;;;;;;18.25;75.47;96728.91;1605360;87;26014;-72
2022/06/08 09:12:18;;;;;;;16.73;11.70;;;;;;;18.27;75.52;96723.99;1608027;87;25805;-72
2022/06/08 09:14:58;;;;;;;12.85;11.22;;;;;;;18.31;75.54;96727.82;1599465;87;25773;-74
2022/06/08 09:17:37;;;;;;;11.65;10.20;;;;;;;18.32;75.49;96721.27;1575921;90;25843;-73
2022/06/08 09:20:13;;;;;;;11.10;9.48;;;;;;;18.31;75.52;96719.62;1572384;90;27524;-73
2022/06/08 09:22:39;;;;;;;9.85;8.95;;;;;;;18.20;75.67;96715.28;1495057;94;25908;-72
2022/06/08 09:25:31;;;;;;;10.10;9.03;;;;;;;18.11;75.91;96710.12;1510512;93;25837;-71
2022/06/08 09:28:00;;;;;;;9.88;8.98;;;;;;;18.03;76.14;96701.09;1500078;92;25964;-73
2022/06/08 09:30:48;;;;;;;12.82;9.73;;;;;;;18.09;76.44;96702.73;1555369;91;25875;-72
2022/06/08 09:33:26;;;;;;;14.10;11.97;;;;;;;18.17;76.49;96703.53;1559536;90;28079;-72
2022/06/08 09:36:01;;;;;;;13.20;11.90;;;;;;;18.24;76.58;96706.78;1531549;93;25982;-72
2022/06/08 09:38:32;;;;;;;13.75;12.23;;;;;;;18.29;76.55;96710.06;1558226;90;25980;-74
2022/06/08 09:41:16;;;;;;;15.17;13.57;;;;;;;18.34;76.58;96708.69;1558078;91;25985;-73
2022/06/08 09:44:15;;;;;;;13.55;12.15;;;;;;;18.39;76.59;96710.03;1557352;91;25863;-72
2022/06/08 09:53:16;;;;;;;19.00;14.65;;;;;;;18.50;76.35;96705.34;1552241;91;25985;-73
2022/06/08 09:56:15;;;;;;;16.12;12.25;;;;;;;18.49;76.38;96699.61;1551617;91;25806;-73
2022/06/08 09:59:04;;;;;;;14.25;12.85;;;;;;;18.45;76.56;96689.80;1550579;91;25937;-74
2022/06/08 10:01:56;;;;;;;14.68;12.75;;;;;;;18.44;76.78;96684.61;1644364;86;27482;-73
2022/06/08 10:04:55;;;;;;;15.60;13.07;;;;;;;18.47;76.97;96684.06;1650283;86;25728;-75
2022/06/08 10:07:29;;;;;;;14.13;12.63;;;;;;;18.43;76.87;96685.70;1586021;89;25806;-73
2022/06/08 10:10:22;;;;;;;16.95;13.08;;;;;;;18.42;77.12;96674.50;1598764;89;26250;-75
2022/06/08 10:12:59;;;;;;;14.43;12.05;;;;;;;18.49;77.26;96673.09;1534226;91;26645;-73
2022/06/08 10:15:46;;;;;;;14.15;12.65;;;;;;;18.58;77.06;96673.39;1577092;88;28002;-73
2022/06/08 10:18:35;;;;;;;15.30;12.35;;;;;;;18.65;76.94;96669.80;1583126;89;25881;-73
2022/06/08 10:21:13;;;;;;;13.22;11.83;;;;;;;18.63;76.67;96666.52;1586001;88;25766;-73
2022/06/08 10:23:57;;;;;;;13.85;12.15;;;;;;;18.64;76.81;96665.42;1562019;90;25927;-73
2022/06/08 10:26:35;;;;;;;14.20;12.63;;;;;;;18.69;76.71;96672.24;1562510;91;25916;-77
2022/06/08 10:29:15;;;;;;;14.47;12.28;;;;;;;18.75;76.63;96668.38;1561709;91;27669;-77
2022/06/08 10:32:25;;;;;;;13.98;12.53;;;;;;;18.78;76.47;96667.81;1531913;93;25371;-72
2022/06/08 10:34:54;;;;;;;12.95;11.60;;;;;;;18.83;76.52;96675.19;1549474;91;25863;-74
2022/06/08 10:37:37;;;;;;;16.45;12.85;;;;;;;18.76;76.61;96662.36;1555491;91;26526;-76
2022/06/08 10:40:12;;;;;;;15.08;11.93;;;;;;;18.76;76.63;96659.08;1517956;94;26020;-75
2022/06/08 10:42:43;;;;;;;12.98;11.43;;;;;;;18.80;76.66;96663.44;1507144;93;28140;-73
2022/06/08 10:45:30;;;;;;;13.30;11.45;;;;;;;18.83;76.67;96661.52;1497620;93;26000;-74
2022/06/08 10:48:01;;;;;;;12.23;11.03;;;;;;;18.82;76.82;96659.33;1512905;94;25831;-77
2022/06/08 10:50:33;;;;;;;10.78;9.68;;;;;;;18.82;76.63;96660.70;1521593;92;25870;-75
2022/06/08 10:56:32;;;;;;;10.13;9.13;;;;;;;18.81;76.66;96641.29;1580392;89;28433;-77
2022/06/08 10:59:12;;;;;;;9.63;8.65;;;;;;;18.85;76.83;96638.23;1580610;89;25581;-74
2022/06/08 11:02:12;;;;;;;8.48;7.45;;;;;;;18.88;76.84;96640.96;1590682;89;25867;-76
2022/06/08 11:05:08;;;;;;;7.33;6.62;;;;;;;18.93;76.97;96641.77;1612671;87;25750;-74
2022/06/08 11:08:06;;;;;;;7.45;6.75;;;;;;;18.98;76.78;96641.71;1621614;86;25843;-76
2022/06/08 11:10:51;;;;;;;7.95;6.58;;;;;;;18.99;76.65;96643.35;1624112;87;27459;-73
2022/06/08 11:13:38;;;;;;;7.62;6.53;;;;;;;19.05;76.66;96643.60;1644605;86;25827;-74
2022/06/08 11:16:22;;;;;;;9.00;8.10;;;;;;;19.10;76.49;96646.02;1642114;85;25391;-76
2022/06/08 11:19:11;;;;;;;10.40;9.40;;;;;;;19.19;76.96;96643.78;1645746;86;26473;-73
2022/06/08 11:21:54;;;;;;;9.80;8.80;;;;;;;19.23;77.03;96640.72;1672540;84;25800;-73
2022/06/08 11:24:42;;;;;;;10.72;9.20;;;;;;;19.28;77.10;96640.70;1681534;84;28256;-73
2022/06/08 11:27:29;;;;;;;9.83;8.80;;;;;;;19.32;77.07;96641.74;1682881;84;25744;-72
2022/06/08 11:30:23;;;;;;;9.73;8.73;;;;;;;19.30;76.97;96639.87;1680745;84;25716;-73
2022/06/08 11:32:58;;;;;;;10.35;8.60;;;;;;;19.35;76.67;96645.83;1681673;84;25727;-73
2022/06/08 11:36:00;;;;;;;10.18;8.08;;;;;;;19.41;76.31;96641.97;1701376;81;25824;-76
2022/06/08 11:39:01;;;;;;;10.08;8.73;;;;;;;19.48;76.00;96643.00;1743488;80;27380;-76
2022/06/08 11:41:35;;;;;;;9.58;8.68;;;;;;;19.48;75.89;96643.00;1774399;80;25742;-73
2022/06/08 11:44:06;;;;;;;10.48;9.15;;;;;;;19.42;76.21;96643.06;1774277;80;25769;-73
2022/06/08 11:46:38;;;;;;;9.23;8.33;;;;;;;;;;1617791;86;34947;-73
2022/06/08 11:49:08;;;;;;;10.40;9.30;;;;;;;19.47;76.16;96643.55;1617940;86;25595;-73
2022/06/08 11:51:41;;;;;;;10.55;9.55;;;;;;;19.54;75.81;96635.88;1611932;87;27421;-73
2022/06/08 11:54:25;;;;;;;9.68;8.68;;;;;;;19.58;75.88;96639.65;1601129;87;25887;-74
2022/06/08 11:57:02;;;;;;;9.08;8.20;;;;;;;19.64;75.83;96633.04;1615035;87;25926;-73
2022/06/08 11:59:34;;;;;;;9.33;8.30;;;;;;;19.72;75.44;96632.41;1492753;95;26179;-75
2022/06/08 12:02:05;;;;;;;10.43;8.63;;;;;;;19.82;75.30;96632.86;1499481;94;25546;-76
2022/06/08 12:04:34;;;;;;;9.75;8.15;;;;;;;19.91;74.97;96631.70;1496978;94;28145;-76
2022/06/08 12:07:01;;;;;;;9.53;8.58;;;;;;;20.03;75.02;96629.38;1494725;94;25767;-72